North Bend, OR

6:29 AM PST on February 14, 2016 (GMT -0800)
Edd Family | | Change Station
CLOSE
Current Station
Personal Weather Station
Location: North Bend, OR
Elevation: 120 ft
Nearby Weather Stations

Elev 120 ft 43.40 °N, 124.25 °W | Updated 5 seconds ago

Overcast
Overcast
53.1 °F
Feels Like 53.1 °F
N
5.4
Wind Variable Wind from SW
Gusts 10.7 mph

Today
High -- | Low -- °F
--% Chance of Precip.
Yesterday
High -- | Low -- °F
Precip. -- in
Pressure 30.32 in
Visibility 4.0 miles
Clouds Mostly Cloudy 1000 ft
Overcast 1700 ft
Dew Point 52 °F
Humidity 95%
Rainfall 0.00 in
Snow Depth Not available.
7:17 AM 5:45 PM
Waxing Crescent, 42% visible
METAR KOTH 141415Z 20010KT 4SM BKN010 OVC017 12/11 A3032 RMK AO1 P0001
Pressure 30.32 in
Visibility 4.0 miles
Clouds Mostly Cloudy 1000 ft
Overcast 1700 ft
Dew Point 52 °F
Humidity 95%
Rainfall 0.00 in
Snow Depth Not available.
7:17 AM 5:45 PM
Waxing Crescent, 42% visible
METAR KOTH 141415Z 20010KT 4SM BKN010 OVC017 12/11 A3032 RMK AO1 P0001

10-Day Weather Forecast

Almanac

Astronomy

Feb. 14, 2016 Rise Set
Actual Time
Civil Twilight
Nautical Twilight
Astronomical Twilight
Moon
Length of Visible Light
Length of Day
Tomorrow will be .
, % of the Moon is Illuminated

Today's Extremes

State Highs State Lows

Community

WunderPhotos

Upload Photos

1,892,800 photos uploaded!

WunderBlog® & News

Nearby

Air Quality

  Air Quality AQ Index Pollutant
Not available.

Snow Depth

Station Depth Elevation

Earthquake Activity

City Distance Mag. Time & Date
Minimum magnitude displayed is 2.5.

Coastal Water Temperatures

Place Temperature

Stations

Nearby Weather Stations

Station Location Temp. Windchill Dew Point Humidity Wind Precip. Elev Updated Type
                   

Watches & Warnings

There are currently no watches in effect.